Pagina principale
METAR-TAF:

METAR-TAF

Aeroporti :

Buochs, Svizzera

latitudine: 46-58-28N, longitudine: 8-23-49E, altezza: 449 m

Osservazione

Il bollettino è stato emesso 27 minuti fa, alle 02:50 UTC
Vento 6 kt da ovest, variando fra sud/sud-ovest e nord-ovest
Temperature 15°C
Umidità 48%
Pressione 1025 hPa
Visibilità 10 km o più
Nuvoloso ad un'altezza di 7000 ft

METAR: LSZC 240250Z AUTO 27006KT 210V320 9999 BKN070 15/04 Q1025

Ora: 04:17 (03:17 UTC)


TAF: mancante

Osservazioni e previsioni meteorologiche di più di 4000 aeroporti (messaggi METAR e TAF).

Le stazioni disponibili sono rappresentate dai dischi gialli e rossi sulla carta.

Puntare il mouse per vedere il nome della stazione.

Clicca sopra per visualizzare le osservazioni e previsioni meteorologiche.

Per cambiare la mappa : fare clic sui pulsanti verdi con una croce nera per ingrandire, il pulsante verde con un trattino per diminuire, o sulla freccia verde per le mappe adiacenti.


METAR-TAF: